createdAt,value
2019-04-23T00:02:44.463Z,28.40
2019-04-23T00:11:05.642Z,28.40
2019-04-23T00:13:39.335Z,28.50
2019-04-23T00:18:42.306Z,28.50
2019-04-23T00:24:11.447Z,28.50
2019-04-23T00:32:21.760Z,28.50
2019-04-23T00:34:55.785Z,28.50
2019-04-23T00:37:31.558Z,28.60
2019-04-23T00:44:57.179Z,28.60
2019-04-23T00:50:12.650Z,28.60
2019-04-23T00:52:40.791Z,28.70
2019-04-23T00:55:14.842Z,28.70
2019-04-23T00:57:40.584Z,28.70
2019-04-23T01:00:20.669Z,28.70
2019-04-23T01:07:54.745Z,28.80
2019-04-23T01:10:27.705Z,28.80
2019-04-23T01:13:05.654Z,28.90
2019-04-23T01:15:37.267Z,28.90
2019-04-23T01:18:11.031Z,28.90
2019-04-23T01:20:52.110Z,29.00
2019-04-23T01:22:59.063Z,29.00
2019-04-23T01:25:51.362Z,29.00
2019-04-23T01:31:27.158Z,29.10
2019-04-23T01:33:57.510Z,29.10
2019-04-23T01:36:32.717Z,29.20
2019-04-23T01:41:42.627Z,29.30
2019-04-23T01:47:15.594Z,29.40
2019-04-23T01:52:48.235Z,29.50
2019-04-23T01:58:27.420Z,29.60
2019-04-23T02:09:43.435Z,29.60
2019-04-23T02:24:50.494Z,30.00
2019-04-23T02:30:40.590Z,30.20
2019-04-23T03:07:45.946Z,31.30
2019-04-23T03:57:07.074Z,32.30
2019-04-23T04:05:32.933Z,32.60
2019-04-23T04:11:09.650Z,32.70
2019-04-23T04:19:23.009Z,32.70
2019-04-23T04:46:09.990Z,33.20
2019-04-23T05:00:12.357Z,33.40
2019-04-23T05:06:15.681Z,33.50
2019-04-23T05:14:35.400Z,33.60
2019-04-23T05:17:07.904Z,33.60
2019-04-23T05:19:42.606Z,33.70
2019-04-23T05:31:08.617Z,33.80
2019-04-23T05:33:38.149Z,33.80
2019-04-23T05:39:17.501Z,33.80
2019-04-23T05:53:13.424Z,33.90
2019-04-23T05:55:51.752Z,34.00
2019-04-23T06:01:33.699Z,34.10
2019-04-23T06:03:58.156Z,34.20
2019-04-23T06:06:52.433Z,34.20
2019-04-23T06:09:25.376Z,34.30
2019-04-23T06:29:39.378Z,34.50
2019-04-23T06:32:07.957Z,34.50
2019-04-23T06:35:16.535Z,34.60
2019-04-23T06:43:34.963Z,34.70
2019-04-23T06:49:05.426Z,34.60
2019-04-23T06:51:46.431Z,34.70
2019-04-23T06:57:08.725Z,34.70
2019-04-23T06:59:37.217Z,34.80
2019-04-23T07:05:01.767Z,34.80
2019-04-23T07:10:32.144Z,34.90
2019-04-23T07:33:44.658Z,35.00
2019-04-23T07:45:33.184Z,35.10
2019-04-23T07:48:13.158Z,35.00
2019-04-23T07:50:47.694Z,35.00
2019-04-23T07:56:05.790Z,35.20
2019-04-23T07:58:31.272Z,35.30
2019-04-23T08:01:06.980Z,35.30
2019-04-23T08:03:43.666Z,35.40
2019-04-23T08:08:56.519Z,35.40
2019-04-23T08:14:16.371Z,35.30
2019-04-23T08:16:56.165Z,35.30
2019-04-23T08:19:32.356Z,35.40
2019-04-23T08:22:09.256Z,35.40
2019-04-23T08:24:53.627Z,35.40
2019-04-23T08:29:44.414Z,35.40
2019-04-23T08:32:27.962Z,35.60
2019-04-23T08:35:01.657Z,35.50
2019-04-23T08:37:47.934Z,35.40
2019-04-23T08:43:05.705Z,35.40
2019-04-23T08:45:35.579Z,35.50
2019-04-23T08:55:58.774Z,35.50
2019-04-23T09:03:34.266Z,35.40
2019-04-23T09:08:37.659Z,35.20
2019-04-23T09:11:30.460Z,35.20
2019-04-23T09:13:54.731Z,35.10
2019-04-23T09:18:59.691Z,35.10
2019-04-23T09:21:21.090Z,35.10
2019-04-23T09:29:23.101Z,34.90
2019-04-23T09:34:46.515Z,34.80
2019-04-23T09:40:18.855Z,34.70
2019-04-23T09:42:50.037Z,34.70
2019-04-23T09:45:23.174Z,34.70
2019-04-23T09:47:57.066Z,34.70
2019-04-23T09:50:32.697Z,34.60
2019-04-23T09:58:02.861Z,34.40
2019-04-23T10:03:20.969Z,34.30
2019-04-23T10:05:51.135Z,34.30
2019-04-23T10:08:19.926Z,34.20
2019-04-23T10:10:45.215Z,34.20
2019-04-23T10:13:16.065Z,34.30
2019-04-23T10:15:48.525Z,34.20
2019-04-23T10:18:20.139Z,34.10
2019-04-23T10:20:52.166Z,34.10
2019-04-23T10:23:23.362Z,34.00
2019-04-23T10:25:54.095Z,34.00
2019-04-23T10:28:42.291Z,34.00
2019-04-23T10:31:14.500Z,34.00
2019-04-23T10:33:46.102Z,33.80
2019-04-23T10:36:19.911Z,33.80
2019-04-23T10:39:00.003Z,33.70
2019-04-23T10:41:23.135Z,33.60
2019-04-23T10:43:56.697Z,33.50
2019-04-23T10:47:11.789Z,33.50
2019-04-23T10:58:38.343Z,33.20
2019-04-23T11:01:43.632Z,33.20
2019-04-23T11:09:11.337Z,33.00
2019-04-23T11:11:29.024Z,32.90
2019-04-23T11:14:13.343Z,32.90
2019-04-23T11:19:25.595Z,32.80
2019-04-23T12:01:02.541Z,32.00
2019-04-23T12:03:47.345Z,32.00
2019-04-23T12:06:42.115Z,32.00
2019-04-23T12:13:15.811Z,31.90
2019-04-23T12:28:25.889Z,32.00
2019-04-23T12:31:05.603Z,31.90
2019-04-23T12:33:42.042Z,32.00
2019-04-23T13:15:05.618Z,31.70
2019-04-23T14:25:05.762Z,31.30
2019-04-23T14:28:05.618Z,31.40
2019-04-23T14:32:48.743Z,31.40
2019-04-23T14:43:30.924Z,31.20
2019-04-23T14:48:38.053Z,31.30
2019-04-23T14:50:57.581Z,31.30
2019-04-23T14:58:50.240Z,31.20
2019-04-23T15:01:42.903Z,31.20
2019-04-23T15:03:55.971Z,31.20
2019-04-23T15:07:01.337Z,31.20
2019-04-23T15:09:27.962Z,31.20
2019-04-23T15:12:11.553Z,31.20
2019-04-23T15:17:10.736Z,31.10
2019-04-23T15:22:35.107Z,31.20
2019-04-23T15:25:19.454Z,31.20
2019-04-23T15:30:05.797Z,31.10
2019-04-23T15:32:54.501Z,31.10
2019-04-23T15:40:20.986Z,31.10
2019-04-23T15:42:55.667Z,31.10
2019-04-23T15:45:28.492Z,31.10
2019-04-23T15:48:03.275Z,31.10
2019-04-23T15:50:37.944Z,31.10
2019-04-23T15:53:12.252Z,31.20
2019-04-23T15:56:04.449Z,31.10
2019-04-23T15:58:38.052Z,31.10
2019-04-23T16:01:17.322Z,31.10
2019-04-23T16:03:19.266Z,31.00
2019-04-23T16:05:50.964Z,31.00
2019-04-23T16:09:01.638Z,31.00
2019-04-23T16:11:45.365Z,31.00
2019-04-23T16:22:01.596Z,31.00
2019-04-23T16:24:22.086Z,31.00
2019-04-23T16:27:06.026Z,31.00
2019-04-23T16:29:48.831Z,31.00
2019-04-23T16:32:08.883Z,31.00
2019-04-23T16:34:58.117Z,31.00
2019-04-23T16:37:15.327Z,31.00
2019-04-23T16:39:48.824Z,31.00
2019-04-23T16:42:18.166Z,30.90
2019-04-23T16:45:01.271Z,30.90
2019-04-23T16:49:58.368Z,31.00
2019-04-23T16:52:26.711Z,30.90
2019-04-23T16:54:58.442Z,30.90
2019-04-23T17:00:13.185Z,30.90
2019-04-23T17:02:40.627Z,30.90
2019-04-23T17:05:16.123Z,30.90
2019-04-23T17:07:53.340Z,31.00
2019-04-23T17:10:33.571Z,31.00
2019-04-23T17:12:51.886Z,30.90
2019-04-23T17:15:48.343Z,31.00
2019-04-23T17:18:13.563Z,31.00
2019-04-23T17:20:47.081Z,30.90
2019-04-23T17:23:27.085Z,30.90
2019-04-23T17:25:48.530Z,30.90
2019-04-23T17:28:24.784Z,30.80
2019-04-23T17:31:06.151Z,30.90
2019-04-23T17:33:29.158Z,30.90
2019-04-23T17:36:14.659Z,30.90
2019-04-23T17:43:54.422Z,30.80
2019-04-23T17:46:22.309Z,30.80
2019-04-23T17:49:00.553Z,30.80
2019-04-23T17:51:19.424Z,30.70
2019-04-23T17:54:04.736Z,30.80
2019-04-23T17:56:41.564Z,30.70
2019-04-23T17:59:09.301Z,30.70
2019-04-23T18:01:36.050Z,30.70
2019-04-23T18:04:10.647Z,30.70
2019-04-23T18:06:55.851Z,30.70
2019-04-23T18:09:34.334Z,30.80
2019-04-23T18:11:44.512Z,30.70
2019-04-23T18:14:11.230Z,30.70
2019-04-23T18:16:57.542Z,30.70
2019-04-23T18:19:16.621Z,30.70
2019-04-23T18:22:15.506Z,30.70
2019-04-23T18:25:18.033Z,30.70
2019-04-23T18:27:38.640Z,30.70
2019-04-23T18:30:15.601Z,30.70
2019-04-23T18:33:12.416Z,30.70
2019-04-23T18:37:56.395Z,30.60
2019-04-23T18:40:28.569Z,30.60
2019-04-23T18:45:54.069Z,30.70
2019-04-23T19:01:16.021Z,30.60
2019-04-23T19:06:32.795Z,30.60
2019-04-23T19:09:33.264Z,30.60
2019-04-23T19:19:46.435Z,30.60
2019-04-23T19:22:28.450Z,30.60
2019-04-23T19:24:47.811Z,30.60
2019-04-23T19:27:16.786Z,30.60
2019-04-23T19:29:52.034Z,30.60
2019-04-23T19:32:21.258Z,30.60
2019-04-23T19:35:16.154Z,30.60
2019-04-23T19:37:37.943Z,30.50
2019-04-23T19:39:53.349Z,30.50
2019-04-23T19:42:36.848Z,30.60
2019-04-23T19:45:12.008Z,30.60
2019-04-23T19:47:51.323Z,30.50
2019-04-23T19:50:05.576Z,30.50
2019-04-23T19:52:57.428Z,30.50
2019-04-23T19:55:08.554Z,30.50
2019-04-23T19:57:50.714Z,30.50
2019-04-23T20:00:19.328Z,30.50
2019-04-23T20:03:13.764Z,30.50
2019-04-23T20:05:25.152Z,30.50
2019-04-23T20:10:30.416Z,30.40
2019-04-23T20:12:59.036Z,30.40
2019-04-23T20:15:42.739Z,30.40
2019-04-23T20:18:01.074Z,30.40
2019-04-23T20:20:43.891Z,30.40
2019-04-23T20:23:13.312Z,30.40
2019-04-23T20:28:46.423Z,30.40
2019-04-23T20:31:05.430Z,30.40
2019-04-23T20:35:56.644Z,30.40
2019-04-23T20:38:33.391Z,30.30
2019-04-23T20:41:06.324Z,30.40
2019-04-23T20:43:46.614Z,30.30
2019-04-23T20:46:06.564Z,30.30
2019-04-23T20:51:08.605Z,30.30
2019-04-23T20:53:50.648Z,30.30
2019-04-23T20:56:30.126Z,30.30
2019-04-23T20:59:00.243Z,30.30
2019-04-23T21:02:00.471Z,30.30
2019-04-23T21:04:29.761Z,30.30
2019-04-23T21:06:57.969Z,30.30
2019-04-23T21:12:06.679Z,30.30
2019-04-23T21:14:48.425Z,30.20
2019-04-23T21:17:05.369Z,30.20
2019-04-23T21:19:52.509Z,30.30
2019-04-23T21:22:13.987Z,30.30
2019-04-23T21:24:47.841Z,30.20
2019-04-23T21:27:35.467Z,30.30
2019-04-23T21:32:35.551Z,30.20
2019-04-23T21:35:04.939Z,30.20
2019-04-23T21:37:37.222Z,30.20
2019-04-23T21:43:01.398Z,30.20
2019-04-23T21:45:36.973Z,30.20
2019-04-23T21:50:45.586Z,30.20
2019-04-23T21:53:06.512Z,30.20
2019-04-23T21:55:47.262Z,30.10
2019-04-23T22:00:56.990Z,30.10
2019-04-23T22:03:35.671Z,30.10
2019-04-23T22:08:15.245Z,30.10
2019-04-23T22:11:10.460Z,30.10
2019-04-23T22:13:42.317Z,30.10
2019-04-23T22:16:14.598Z,30.10
2019-04-23T22:18:34.420Z,30.10
2019-04-23T22:21:06.553Z,30.10
2019-04-23T22:23:50.571Z,30.10
2019-04-23T22:26:14.540Z,30.10
2019-04-23T22:28:48.943Z,30.10
2019-04-23T22:33:53.786Z,30.10
2019-04-23T22:36:16.485Z,30.10
2019-04-23T22:38:49.504Z,30.10
2019-04-23T22:44:00.489Z,30.00
2019-04-23T22:46:38.035Z,30.00
2019-04-23T22:49:17.521Z,30.00
2019-04-23T22:51:42.099Z,30.00
2019-04-23T22:56:50.096Z,30.00
2019-04-23T23:01:59.185Z,30.00
2019-04-23T23:04:54.566Z,29.90
2019-04-23T23:07:19.736Z,30.00
2019-04-23T23:09:58.542Z,30.00
2019-04-23T23:12:25.876Z,29.90
2019-04-23T23:15:05.291Z,29.90
2019-04-23T23:17:32.426Z,29.90
2019-04-23T23:23:40.840Z,29.90
2019-04-23T23:32:22.790Z,29.90
2019-04-23T23:35:11.307Z,29.90
2019-04-23T23:37:19.290Z,29.90
2019-04-23T23:39:56.971Z,29.90
2019-04-23T23:42:21.823Z,29.90
2019-04-23T23:45:05.085Z,29.90
2019-04-23T23:47:29.819Z,29.90
2019-04-23T23:50:10.473Z,30.00
2019-04-23T23:52:53.589Z,30.00
2019-04-23T23:55:07.770Z,30.00
2019-04-23T23:57:46.849Z,30.00
